createdAt,value
2016-12-07T00:00:23.802Z,0
2016-12-07T00:01:23.522Z,0
2016-12-07T00:02:23.581Z,0
2016-12-07T00:03:23.878Z,0
2016-12-07T00:04:23.894Z,0
2016-12-07T00:05:23.325Z,0
2016-12-07T00:06:23.949Z,0
2016-12-07T00:07:23.973Z,0
2016-12-07T00:08:24.006Z,0
2016-12-07T00:09:24.023Z,0
2016-12-07T00:10:24.368Z,0
2016-12-07T00:11:24.090Z,0
2016-12-07T00:12:24.109Z,0
2016-12-07T00:13:24.442Z,0
2016-12-07T00:14:24.167Z,0
2016-12-07T00:15:24.503Z,0
2016-12-07T00:16:24.221Z,0
2016-12-07T00:17:24.536Z,0
2016-12-07T00:18:23.973Z,0
2016-12-07T00:19:23.699Z,0
2016-12-07T00:20:24.323Z,0
2016-12-07T00:21:24.664Z,0
2016-12-07T00:22:24.701Z,0
2016-12-07T00:23:24.401Z,0
2016-12-07T00:24:24.738Z,0
2016-12-07T00:25:24.143Z,0
2016-12-07T00:26:23.883Z,0
2016-12-07T00:27:24.513Z,0
2016-12-07T00:28:24.239Z,0
2016-12-07T00:29:24.571Z,0
2016-12-07T00:30:24.283Z,0
2016-12-07T00:31:24.615Z,0
2016-12-07T00:32:24.638Z,0
2016-12-07T00:33:24.698Z,0
2016-12-07T00:34:24.400Z,0
2016-12-07T00:35:24.114Z,0
2016-12-07T00:36:24.456Z,0
2016-12-07T00:37:24.525Z,0
2016-12-07T00:38:24.506Z,0
2016-12-07T00:39:25.147Z,0
2016-12-07T00:40:25.175Z,0
2016-12-07T00:41:24.881Z,0
2016-12-07T00:42:24.910Z,0
2016-12-07T00:43:24.639Z,0
2016-12-07T00:44:24.663Z,0
2016-12-07T00:45:24.999Z,0
2016-12-07T00:46:25.016Z,0
2016-12-07T00:47:24.430Z,0
2016-12-07T00:48:24.758Z,0
2016-12-07T00:49:24.792Z,0
2016-12-07T00:50:24.824Z,0
2016-12-07T00:51:24.573Z,0
2016-12-07T00:52:24.873Z,0
2016-12-07T00:53:24.916Z,0
2016-12-07T00:54:25.229Z,0
2016-12-07T00:55:25.252Z,0
2016-12-07T00:56:24.673Z,0
2016-12-07T00:57:25.017Z,0
2016-12-07T00:58:25.040Z,0
2016-12-07T00:59:25.380Z,0
2016-12-07T01:00:24.778Z,0
2016-12-07T01:01:24.812Z,0
2016-12-07T01:02:25.155Z,0
2016-12-07T01:03:25.480Z,0
2016-12-07T01:04:25.495Z,0
2016-12-07T01:05:25.521Z,0
2016-12-07T01:06:25.848Z,0
2016-12-07T01:07:24.964Z,0
2016-12-07T01:08:25.608Z,0
2016-12-07T01:09:25.342Z,0
2016-12-07T01:10:25.660Z,0
2016-12-07T01:11:25.384Z,0
2016-12-07T01:12:25.408Z,0
2016-12-07T01:13:25.433Z,0
2016-12-07T01:14:25.778Z,0
2016-12-07T01:15:25.183Z,0
2016-12-07T01:16:25.212Z,0
2016-12-07T01:17:25.237Z,0
2016-12-07T01:18:26.202Z,0
2016-12-07T01:19:25.902Z,0
2016-12-07T01:20:25.608Z,0
2016-12-07T01:21:25.645Z,0
2016-12-07T01:22:25.982Z,0
2016-12-07T01:23:25.694Z,0
2016-12-07T01:24:26.032Z,0
2016-12-07T01:25:25.752Z,0
2016-12-07T01:26:25.776Z,0
2016-12-07T01:27:25.816Z,0
2016-12-07T01:28:25.540Z,0
2016-12-07T01:29:26.173Z,0
2016-12-07T01:30:26.200Z,0
2016-12-07T01:31:25.913Z,0
2016-12-07T01:32:26.538Z,0
2016-12-07T01:33:26.279Z,0
2016-12-07T01:34:25.984Z,0
2016-12-07T01:35:26.012Z,0
2016-12-07T01:36:26.357Z,0
2016-12-07T01:37:26.370Z,0
2016-12-07T01:38:26.099Z,0
2016-12-07T01:39:26.152Z,0
2016-12-07T01:40:26.465Z,0
2016-12-07T01:41:26.514Z,0
2016-12-07T01:42:26.509Z,0
2016-12-07T01:43:26.849Z,0
2016-12-07T01:44:26.564Z,0
2016-12-07T01:45:26.576Z,0
2016-12-07T01:46:26.625Z,0
2016-12-07T01:47:26.334Z,0
2016-12-07T01:48:26.679Z,0
2016-12-07T01:49:26.394Z,0
2016-12-07T01:50:26.728Z,0
2016-12-07T01:51:27.076Z,0
2016-12-07T01:52:26.764Z,0
2016-12-07T01:53:26.493Z,0
2016-12-07T01:54:26.213Z,0
2016-12-07T01:55:27.150Z,0
2016-12-07T01:56:26.580Z,0
2016-12-07T01:57:26.592Z,0
2016-12-07T01:58:26.932Z,0
2016-12-07T01:59:27.261Z,0
2016-12-07T02:00:27.289Z,0
2016-12-07T02:01:26.709Z,0
2016-12-07T02:02:26.722Z,0
2016-12-07T02:03:26.764Z,0
2016-12-07T02:04:27.395Z,0
2016-12-07T02:05:26.804Z,0
2016-12-07T02:06:26.825Z,0
2016-12-07T02:07:26.853Z,0
2016-12-07T02:08:26.574Z,0
2016-12-07T02:09:27.218Z,0
2016-12-07T02:10:26.631Z,0
2016-12-07T02:11:27.268Z,0
2016-12-07T02:12:26.686Z,0
2016-12-07T02:13:27.013Z,0
2016-12-07T02:14:26.737Z,0
2016-12-07T02:15:27.066Z,0
2016-12-07T02:16:27.099Z,0
2016-12-07T02:17:27.416Z,0
2016-12-07T02:18:27.155Z,0
2016-12-07T02:19:26.873Z,0
2016-12-07T02:20:27.804Z,0
2016-12-07T02:21:27.218Z,0
2016-12-07T02:22:27.242Z,0
2016-12-07T02:23:27.276Z,0
2016-12-07T02:24:27.616Z,0
2016-12-07T02:25:27.938Z,0
2016-12-07T02:26:27.356Z,0
2016-12-07T02:27:27.375Z,0
2016-12-07T02:28:27.406Z,0
2016-12-07T02:29:27.753Z,0
2016-12-07T02:30:27.466Z,0
2016-12-07T02:31:27.179Z,0
2016-12-07T02:32:27.203Z,0
2016-12-07T02:33:28.140Z,0
2016-12-07T02:34:27.565Z,0
2016-12-07T02:35:27.894Z,0
2016-12-07T02:36:27.922Z,0
2016-12-07T02:37:27.347Z,0
2016-12-07T02:38:27.684Z,0
2016-12-07T02:39:27.400Z,0
2016-12-07T02:40:27.721Z,0
2016-12-07T02:41:28.063Z,0
2016-12-07T02:42:27.785Z,0
2016-12-07T02:43:28.104Z,0
2016-12-07T02:44:28.124Z,0
2016-12-07T02:45:27.853Z,0
2016-12-07T02:46:27.885Z,0
2016-12-07T02:47:28.203Z,0
2016-12-07T02:48:27.939Z,0
2016-12-07T02:49:27.960Z,0
2016-12-07T02:50:28.289Z,0
2016-12-07T02:51:28.307Z,0
2016-12-07T02:52:28.039Z,0
2016-12-07T02:53:28.363Z,0
2016-12-07T02:54:28.088Z,0
2016-12-07T02:55:28.417Z,0
2016-12-07T02:56:28.450Z,0
2016-12-07T02:57:28.498Z,0
2016-12-07T02:58:28.489Z,0
2016-12-07T02:59:28.507Z,0
2016-12-07T03:00:28.233Z,0
2016-12-07T03:01:28.264Z,0
2016-12-07T03:02:28.907Z,0
2016-12-07T03:03:28.019Z,0
2016-12-07T03:04:28.048Z,0
2016-12-07T03:05:28.673Z,0
2016-12-07T03:06:28.396Z,0
2016-12-07T03:07:28.718Z,0
2016-12-07T03:08:28.455Z,0
2016-12-07T03:09:28.476Z,0
2016-12-07T03:10:28.501Z,0
2016-12-07T03:11:29.133Z,0
2016-12-07T03:12:28.566Z,0
2016-12-07T03:13:28.888Z,0
2016-12-07T03:14:29.216Z,0
2016-12-07T03:15:28.632Z,0
2016-12-07T03:16:28.955Z,0
2016-12-07T03:17:28.990Z,0
2016-12-07T03:18:28.705Z,0
2016-12-07T03:19:28.740Z,0
2016-12-07T03:20:29.075Z,0
2016-12-07T03:21:28.785Z,0
2016-12-07T03:22:29.153Z,0
2016-12-07T03:23:28.840Z,0
2016-12-07T03:24:29.183Z,0
2016-12-07T03:25:28.584Z,0
2016-12-07T03:26:28.918Z,0
2016-12-07T03:27:29.250Z,0
2016-12-07T03:28:29.286Z,0
2016-12-07T03:29:28.995Z,0
2016-12-07T03:30:29.028Z,0
2016-12-07T03:31:29.057Z,0
2016-12-07T03:32:29.377Z,0
2016-12-07T03:33:29.409Z,0
2016-12-07T03:34:29.131Z,0
2016-12-07T03:35:29.152Z,0
2016-12-07T03:36:29.473Z,0
2016-12-07T03:37:29.505Z,0
2016-12-07T03:39:33.132Z,0
2016-12-07T03:40:01.887Z,0
2016-12-07T03:41:01.596Z,0
2016-12-07T03:42:01.637Z,0
2016-12-07T03:43:01.658Z,0
2016-12-07T03:44:01.679Z,0
2016-12-07T03:45:01.413Z,0
2016-12-07T03:46:02.042Z,0
2016-12-07T03:47:02.073Z,0
2016-12-07T03:48:02.098Z,0
2016-12-07T03:49:01.815Z,0
2016-12-07T03:50:02.151Z,0
2016-12-07T03:51:01.900Z,0
2016-12-07T03:52:01.893Z,0
2016-12-07T03:53:02.218Z,0
2016-12-07T03:54:02.250Z,0
2016-12-07T03:55:02.268Z,0
2016-12-07T03:56:02.327Z,0
2016-12-07T03:57:02.628Z,0
2016-12-07T03:58:01.741Z,0
2016-12-07T03:59:02.380Z,0
2016-12-07T04:00:01.802Z,0
2016-12-07T04:01:02.443Z,0
2016-12-07T04:02:02.153Z,0
2016-12-07T04:03:01.870Z,0
2016-12-07T04:04:02.808Z,0
2016-12-07T04:05:02.226Z,0
2016-12-07T04:06:02.564Z,0
2016-12-07T04:07:02.564Z,0
2016-12-07T04:08:02.009Z,0
2016-12-07T04:09:02.341Z,0
2016-12-07T04:10:02.054Z,0
2016-12-07T04:11:02.998Z,0
2016-12-07T04:12:02.106Z,0
2016-12-07T04:13:03.048Z,0
2016-12-07T04:14:03.081Z,0
2016-12-07T04:15:02.790Z,0
2016-12-07T04:16:03.134Z,0
2016-12-07T04:17:02.847Z,0
2016-12-07T04:18:02.876Z,0
2016-12-07T04:19:02.584Z,0
2016-12-07T04:20:02.316Z,0
2016-12-07T04:21:02.642Z,0
2016-12-07T04:22:03.292Z,0
2016-12-07T04:23:02.990Z,0
2016-12-07T04:24:02.417Z,0
2016-12-07T04:25:03.353Z,0
2016-12-07T04:26:02.470Z,0
2016-12-07T04:27:03.410Z,0
2016-12-07T04:28:02.531Z,0
2016-12-07T04:29:03.160Z,0
2016-12-07T04:30:03.177Z,0
2016-12-07T04:31:03.212Z,0
2016-12-07T04:32:03.228Z,0
2016-12-07T04:33:03.269Z,0
2016-12-07T04:34:03.280Z,0
2016-12-07T04:35:03.316Z,0
2016-12-07T04:36:03.041Z,0
2016-12-07T04:37:03.367Z,0
2016-12-07T04:38:03.697Z,0
2016-12-07T04:39:03.414Z,0
2016-12-07T04:40:03.472Z,0
2016-12-07T04:41:02.855Z,0
2016-12-07T04:42:03.489Z,0
2016-12-07T04:43:03.521Z,0
2016-12-07T04:44:03.883Z,0
2016-12-07T04:45:03.577Z,0
2016-12-07T04:46:03.896Z,0
2016-12-07T04:47:03.618Z,0
2016-12-07T04:48:03.333Z,0
2016-12-07T04:49:03.070Z,0
2016-12-07T04:50:03.693Z,0
2016-12-07T04:51:03.711Z,0
2016-12-07T04:52:03.152Z,0
2016-12-07T04:53:03.794Z,0
2016-12-07T04:54:03.806Z,0
2016-12-07T04:55:03.534Z,0
2016-12-07T04:56:03.238Z,0
2016-12-07T04:57:03.888Z,0
2016-12-07T04:58:03.909Z,0
2016-12-07T04:59:04.245Z,0
2016-12-07T05:00:03.654Z,0
2016-12-07T05:01:03.987Z,0
2016-12-07T05:02:04.035Z,0
2016-12-07T05:03:03.426Z,0
2016-12-07T05:04:04.054Z,0
2016-12-07T05:05:04.406Z,0
2016-12-07T05:06:03.510Z,0
2016-12-07T05:07:03.834Z,0
2016-12-07T05:08:04.480Z,0
2016-12-07T05:09:04.196Z,0
2016-12-07T05:10:03.605Z,0
2016-12-07T05:11:04.238Z,0
2016-12-07T05:12:03.959Z,0
2016-12-07T05:13:03.995Z,0
2016-12-07T05:14:03.704Z,0
2016-12-07T05:15:04.341Z,0
2016-12-07T05:16:04.064Z,0
2016-12-07T05:17:03.780Z,0
2016-12-07T05:18:03.818Z,0
2016-12-07T05:19:04.447Z,0
2016-12-07T05:20:04.476Z,0
2016-12-07T05:21:04.200Z,0
2016-12-07T05:22:04.529Z,0
2016-12-07T05:23:04.248Z,0
2016-12-07T05:24:04.577Z,0
2016-12-07T05:25:03.986Z,0
2016-12-07T05:26:04.023Z,0
2016-12-07T05:27:04.972Z,0
2016-12-07T05:28:04.384Z,0
2016-12-07T05:29:04.689Z,0
2016-12-07T05:30:04.421Z,0
2016-12-07T05:31:04.762Z,0
2016-12-07T05:32:04.482Z,0
2016-12-07T05:33:04.499Z,0
2016-12-07T05:34:04.216Z,0
2016-12-07T05:35:04.858Z,0
2016-12-07T05:36:05.190Z,0
2016-12-07T05:37:04.906Z,0
2016-12-07T05:38:04.934Z,0
2016-12-07T05:39:04.962Z,0
2016-12-07T05:40:04.977Z,0
2016-12-07T05:41:05.010Z,0
2016-12-07T05:42:05.045Z,0
2016-12-07T05:43:05.074Z,0
2016-12-07T05:44:04.475Z,0
2016-12-07T05:45:04.808Z,0
2016-12-07T05:46:04.832Z,0
2016-12-07T05:47:04.869Z,0
2016-12-07T05:48:05.491Z,0
2016-12-07T05:49:04.602Z,0
2016-12-07T05:50:05.247Z,0
2016-12-07T05:51:05.270Z,0
2016-12-07T05:52:04.984Z,0
2016-12-07T05:53:05.621Z,0
2016-12-07T05:54:05.346Z,0
2016-12-07T05:55:05.402Z,0
2016-12-07T05:56:05.419Z,0
2016-12-07T05:57:05.424Z,0
2016-12-07T05:58:05.144Z,0
2016-12-07T05:59:05.474Z,0
2016-12-07T06:00:05.492Z,0
2016-12-07T06:01:05.839Z,0
2016-12-07T06:02:05.871Z,0
2016-12-07T06:03:05.268Z,0
2016-12-07T06:04:05.616Z,0
2016-12-07T06:05:05.630Z,0
2016-12-07T06:06:05.346Z,0
2016-12-07T06:07:05.371Z,0
2016-12-07T06:08:05.708Z,0
2016-12-07T06:09:05.732Z,0
2016-12-07T06:10:05.146Z,0
2016-12-07T06:11:05.788Z,0
2016-12-07T06:12:05.514Z,0
2016-12-07T06:13:05.846Z,0
2016-12-07T06:14:05.555Z,0
2016-12-07T06:15:05.586Z,0
2016-12-07T06:16:05.620Z,0
2016-12-07T06:17:05.329Z,0
2016-12-07T06:18:06.273Z,0
2016-12-07T06:19:05.682Z,0
2016-12-07T06:20:05.702Z,0
2016-12-07T06:21:06.043Z,0
2016-12-07T06:22:05.768Z,0
2016-12-07T06:23:06.085Z,0
2016-12-07T06:24:06.125Z,0
2016-12-07T06:25:05.538Z,0
2016-12-07T06:26:06.167Z,0
2016-12-07T06:27:05.908Z,0
2016-12-07T06:28:06.240Z,0
2016-12-07T06:29:05.949Z,0
2016-12-07T06:30:05.985Z,0
2016-12-07T06:31:05.998Z,0
2016-12-07T06:32:05.731Z,0
2016-12-07T06:33:06.355Z,0
2016-12-07T06:34:06.389Z,0
2016-12-07T06:35:06.417Z,0
2016-12-07T06:36:06.437Z,0
2016-12-07T06:37:06.462Z,0
2016-12-07T06:38:06.482Z,0
2016-12-07T06:39:06.503Z,0
2016-12-07T06:40:06.240Z,0
2016-12-07T06:41:06.251Z,0
2016-12-07T06:42:06.289Z,0
2016-12-07T06:43:06.613Z,0
2016-12-07T06:44:06.338Z,0
2016-12-07T06:45:06.670Z,0
2016-12-07T06:46:06.390Z,0
2016-12-07T06:47:06.706Z,0
2016-12-07T06:48:06.154Z,0
2016-12-07T06:49:06.778Z,4
2016-12-07T06:50:07.105Z,4
2016-12-07T06:51:07.129Z,4
2016-12-07T06:52:06.547Z,0
2016-12-07T06:53:06.257Z,0
2016-12-07T06:54:06.589Z,4
2016-12-07T06:55:06.318Z,4
2016-12-07T06:56:06.345Z,4
2016-12-07T06:57:07.287Z,8
2016-12-07T06:58:07.307Z,8
2016-12-07T06:59:06.736Z,8
2016-12-07T07:00:07.049Z,8
2016-12-07T07:01:06.470Z,12
2016-12-07T07:02:07.410Z,12
2016-12-07T07:03:06.527Z,12
2016-12-07T07:04:07.156Z,16
2016-12-07T07:05:07.492Z,16
2016-12-07T07:06:07.505Z,20
2016-12-07T07:07:07.225Z,20
2016-12-07T07:08:06.652Z,24
2016-12-07T07:09:06.991Z,24
2016-12-07T07:10:07.011Z,28
2016-12-07T07:11:07.337Z,28
2016-12-07T07:12:07.365Z,32
2016-12-07T07:13:07.394Z,32
2016-12-07T07:14:07.117Z,36
2016-12-07T07:15:07.452Z,40
2016-12-07T07:16:07.771Z,44
2016-12-07T07:17:07.197Z,48
2016-12-07T07:18:06.905Z,52
2016-12-07T07:19:07.542Z,56
2016-12-07T07:20:07.275Z,60
2016-12-07T07:21:07.304Z,68
2016-12-07T07:22:07.320Z,76
2016-12-07T07:23:07.656Z,80
2016-12-07T07:24:07.977Z,88
2016-12-07T07:25:07.398Z,92
2016-12-07T07:26:07.443Z,100
2016-12-07T07:27:07.459Z,104
2016-12-07T07:28:07.788Z,108
2016-12-07T07:29:08.118Z,112
2016-12-07T07:30:07.829Z,116
2016-12-07T07:31:07.862Z,124
2016-12-07T07:32:07.579Z,128
2016-12-07T07:33:07.620Z,140
2016-12-07T07:34:07.944Z,144
2016-12-07T07:35:07.964Z,160
2016-12-07T07:36:08.006Z,168
2016-12-07T07:37:07.725Z,172
2016-12-07T07:38:08.339Z,180
2016-12-07T07:39:08.080Z,184
2016-12-07T07:40:07.804Z,188
2016-12-07T07:41:08.432Z,188
2016-12-07T07:42:08.151Z,196
2016-12-07T07:43:08.183Z,196
2016-12-07T07:44:07.902Z,196
2016-12-07T07:45:07.929Z,216
2016-12-07T07:46:07.964Z,228
2016-12-07T07:47:07.982Z,244
2016-12-07T07:48:08.310Z,244
2016-12-07T07:49:07.727Z,248
2016-12-07T07:50:08.056Z,264
2016-12-07T07:51:08.089Z,276
2016-12-07T07:52:08.419Z,280
2016-12-07T07:53:08.456Z,308
2016-12-07T07:54:07.852Z,312
2016-12-07T07:55:08.197Z,316
2016-12-07T07:56:08.212Z,340
2016-12-07T07:57:08.557Z,352
2016-12-07T07:58:08.283Z,368
2016-12-07T07:59:08.611Z,380
2016-12-07T08:00:08.028Z,392
2016-12-07T08:01:08.043Z,404
2016-12-07T08:02:08.073Z,408
2016-12-07T08:03:08.093Z,416
2016-12-07T08:04:09.052Z,416
2016-12-07T08:05:08.763Z,448
2016-12-07T08:06:08.796Z,464
2016-12-07T08:07:09.112Z,476
2016-12-07T08:08:08.541Z,492
2016-12-07T08:09:08.853Z,512
2016-12-07T08:10:08.882Z,512
2016-12-07T08:11:08.307Z,532
2016-12-07T08:12:08.641Z,540
2016-12-07T08:13:08.984Z,528
2016-12-07T08:14:09.009Z,544
2016-12-07T08:15:08.425Z,564
2016-12-07T08:16:08.442Z,576
2016-12-07T08:17:08.779Z,576
2016-12-07T08:18:09.096Z,572
2016-12-07T08:19:08.828Z,552
2016-12-07T08:20:09.158Z,564
2016-12-07T08:21:08.585Z,600
2016-12-07T08:22:09.213Z,628
2016-12-07T08:23:08.624Z,704
2016-12-07T08:24:08.648Z,676
2016-12-07T08:25:09.284Z,700
2016-12-07T08:26:09.612Z,696
2016-12-07T08:27:09.035Z,696
2016-12-07T08:28:09.067Z,840
2016-12-07T08:29:09.097Z,884
2016-12-07T08:30:09.124Z,876
2016-12-07T08:31:09.450Z,892
2016-12-07T08:32:09.166Z,904
2016-12-07T08:33:09.497Z,852
2016-12-07T08:34:09.520Z,740
2016-12-07T08:35:09.555Z,752
2016-12-07T08:36:09.577Z,840
2016-12-07T08:37:09.602Z,780
2016-12-07T08:38:09.622Z,708
2016-12-07T08:39:09.644Z,824
2016-12-07T08:40:09.688Z,1000
2016-12-07T08:41:10.008Z,1036
2016-12-07T08:42:09.737Z,1060
2016-12-07T08:43:09.458Z,1120
2016-12-07T08:44:09.498Z,1068
2016-12-07T08:45:09.813Z,988
2016-12-07T08:46:09.543Z,964
2016-12-07T08:47:09.853Z,980
2016-12-07T08:48:09.881Z,968
2016-12-07T08:49:09.918Z,996
2016-12-07T08:50:09.631Z,1072
2016-12-07T08:51:09.971Z,1148
2016-12-07T08:52:10.320Z,1064
2016-12-07T08:53:10.321Z,1000
2016-12-07T08:54:10.041Z,1104
2016-12-07T08:55:09.470Z,1108
2016-12-07T08:56:10.111Z,1068
2016-12-07T08:57:09.517Z,1072
2016-12-07T08:58:10.153Z,984
2016-12-07T08:59:09.881Z,1064
2016-12-07T09:00:10.534Z,1028
2016-12-07T09:01:10.523Z,1084
2016-12-07T09:02:09.647Z,1120
2016-12-07T09:03:09.974Z,1084
2016-12-07T09:04:10.320Z,1148
2016-12-07T09:05:10.337Z,1036
2016-12-07T09:06:10.066Z,1044
2016-12-07T09:07:10.400Z,1016
2016-12-07T09:08:10.111Z,1044
2016-12-07T09:09:10.128Z,1160
2016-12-07T09:10:10.161Z,988
2016-12-07T09:11:10.501Z,1052
2016-12-07T09:12:10.210Z,1152
2016-12-07T09:13:10.559Z,960
2016-12-07T09:14:10.276Z,976
2016-12-07T09:15:09.993Z,972
2016-12-07T09:16:10.616Z,1056
2016-12-07T09:17:10.997Z,1260
2016-12-07T09:18:10.669Z,1100
2016-12-07T09:19:10.411Z,1308
2016-12-07T09:20:11.050Z,1468
2016-12-07T09:21:10.752Z,1652
2016-12-07T09:22:11.098Z,1296
2016-12-07T09:23:10.499Z,1424
2016-12-07T09:24:10.839Z,1436
2016-12-07T09:25:10.873Z,1380
2016-12-07T09:26:10.905Z,1080
2016-12-07T09:27:10.926Z,1052
2016-12-07T09:28:10.630Z,1072
2016-12-07T09:29:10.359Z,1308
2016-12-07T09:30:10.379Z,1908
2016-12-07T09:31:10.713Z,1932
2016-12-07T09:32:10.744Z,1876
2016-12-07T09:33:10.769Z,1596
2016-12-07T09:34:11.102Z,1352
2016-12-07T09:35:11.439Z,1208
2016-12-07T09:36:11.152Z,1224
2016-12-07T09:37:10.869Z,1356
2016-12-07T09:38:11.198Z,1424
2016-12-07T09:39:11.526Z,1492
2016-12-07T09:40:11.259Z,1776
2016-12-07T09:41:10.983Z,1848
2016-12-07T09:42:11.312Z,1752
2016-12-07T09:43:11.329Z,2084
2016-12-07T09:44:11.050Z,2152
2016-12-07T09:45:10.793Z,1844
2016-12-07T09:46:10.798Z,1828
2016-12-07T09:47:11.144Z,1960
2016-12-07T09:48:11.195Z,2200
2016-12-07T09:49:10.885Z,2204
2016-12-07T09:50:10.906Z,1828
2016-12-07T09:51:11.247Z,1852
2016-12-07T09:52:11.266Z,1932
2016-12-07T09:53:11.289Z,1636
2016-12-07T09:54:11.625Z,1576
2016-12-07T09:55:11.958Z,1664
2016-12-07T09:56:11.686Z,1952
2016-12-07T09:57:11.398Z,1724
2016-12-07T09:58:11.111Z,1552
2016-12-07T09:59:11.451Z,1524
2016-12-07T10:00:11.468Z,1520
2016-12-07T10:01:11.509Z,1732
2016-12-07T10:02:11.534Z,2088
2016-12-07T10:03:11.567Z,1516
2016-12-07T10:04:11.879Z,1376
2016-12-07T10:05:11.942Z,1376
2016-12-07T10:06:11.644Z,2064
2016-12-07T10:07:11.974Z,1832
2016-12-07T10:08:11.992Z,1828
2016-12-07T10:09:11.723Z,1656
2016-12-07T10:10:12.040Z,1796
2016-12-07T10:11:12.072Z,2060
2016-12-07T10:12:12.392Z,1920
2016-12-07T10:13:12.119Z,1768
2016-12-07T10:14:11.535Z,1708
2016-12-07T10:15:11.872Z,1744
2016-12-07T10:16:11.908Z,1848
2016-12-07T10:17:12.225Z,2416
2016-12-07T10:18:12.252Z,3336
2016-12-07T10:19:11.974Z,3468
2016-12-07T10:20:11.699Z,3604
2016-12-07T10:21:12.687Z,3572
2016-12-07T10:22:12.057Z,3432
2016-12-07T10:23:11.773Z,3392
2016-12-07T10:24:11.811Z,3212
2016-12-07T10:25:12.124Z,2672
2016-12-07T10:26:12.159Z,2412
2016-12-07T10:27:12.516Z,2584
2016-12-07T10:28:12.209Z,2760
2016-12-07T10:29:11.937Z,2284
2016-12-07T10:30:12.258Z,2844
2016-12-07T10:31:12.287Z,2928
2016-12-07T10:32:12.624Z,2416
2016-12-07T10:33:12.640Z,2436
2016-12-07T10:34:12.365Z,2636
2016-12-07T10:35:12.398Z,2576
2016-12-07T10:36:12.123Z,2564
2016-12-07T10:37:12.151Z,2364
2016-12-07T10:38:12.792Z,2148
2016-12-07T10:39:12.500Z,2036
2016-12-07T10:40:12.813Z,2032
2016-12-07T10:41:12.557Z,2228
2016-12-07T10:42:12.578Z,1904
2016-12-07T10:43:12.915Z,2004
2016-12-07T10:44:12.644Z,1920
2016-12-07T10:45:12.962Z,1804
2016-12-07T10:46:12.683Z,1800
2016-12-07T10:47:12.706Z,1804
2016-12-07T10:48:12.738Z,1840
2016-12-07T10:49:12.456Z,1836
2016-12-07T10:50:12.784Z,1776
2016-12-07T10:51:13.126Z,1668
2016-12-07T10:52:13.451Z,1608
2016-12-07T10:53:12.875Z,1544
2016-12-07T10:54:12.912Z,1556
2016-12-07T10:55:13.232Z,1636
2016-12-07T10:56:13.257Z,1624
2016-12-07T10:57:12.689Z,1656
2016-12-07T10:58:13.014Z,1736
2016-12-07T10:59:13.340Z,2292
2016-12-07T11:00:13.377Z,2276
2016-12-07T11:01:12.771Z,2152
2016-12-07T11:02:13.093Z,2260
2016-12-07T11:03:13.434Z,2368
2016-12-07T11:04:13.180Z,3012
2016-12-07T11:05:13.180Z,3016
2016-12-07T11:06:13.516Z,2972
2016-12-07T11:07:13.853Z,3140
2016-12-07T11:08:13.264Z,3264
2016-12-07T11:09:13.590Z,3044
2016-12-07T11:10:13.311Z,3036
2016-12-07T11:11:13.348Z,3216
2016-12-07T11:12:13.976Z,2652
2016-12-07T11:13:14.001Z,2652
2016-12-07T11:14:13.108Z,2288
2016-12-07T11:15:13.749Z,2276
2016-12-07T11:16:13.775Z,3056
2016-12-07T11:17:13.803Z,2164
2016-12-07T11:18:13.829Z,1784
2016-12-07T11:19:13.847Z,1680
2016-12-07T11:20:13.884Z,1624
2016-12-07T11:21:14.214Z,1644
2016-12-07T11:22:13.330Z,1656
2016-12-07T11:23:13.964Z,1668
2016-12-07T11:24:13.373Z,1608
2016-12-07T11:25:13.720Z,1648
2016-12-07T11:26:14.043Z,1692
2016-12-07T11:27:14.079Z,1760
2016-12-07T11:28:14.087Z,1740
2016-12-07T11:29:13.816Z,1772
2016-12-07T11:30:14.441Z,1840
2016-12-07T11:31:14.206Z,1936
2016-12-07T11:32:14.498Z,2100
2016-12-07T11:33:14.527Z,2224
2016-12-07T11:34:14.259Z,3324
2016-12-07T11:35:13.965Z,3772
2016-12-07T11:36:14.289Z,3596
2016-12-07T11:37:14.018Z,4148
2016-12-07T11:38:14.048Z,3844
2016-12-07T11:39:13.784Z,3356
2016-12-07T11:40:14.412Z,4396
2016-12-07T11:41:14.121Z,4264
2016-12-07T11:42:13.850Z,3824
2016-12-07T11:43:14.175Z,4620
2016-12-07T11:44:14.215Z,4356
2016-12-07T11:45:14.532Z,3872
2016-12-07T11:46:14.873Z,3568
2016-12-07T11:47:14.602Z,3564
2016-12-07T11:48:14.318Z,3660
2016-12-07T11:49:14.339Z,3476
2016-12-07T11:50:14.364Z,3504
2016-12-07T11:51:14.093Z,4052
2016-12-07T11:52:15.027Z,3212
2016-12-07T11:53:14.442Z,3000
2016-12-07T11:54:14.770Z,2824
2016-12-07T11:55:14.487Z,3084
2016-12-07T11:56:14.528Z,3276
2016-12-07T11:57:14.857Z,3280
2016-12-07T11:58:14.269Z,3348
2016-12-07T11:59:14.911Z,3548
2016-12-07T12:00:14.356Z,3456
2016-12-07T12:01:14.958Z,3356
2016-12-07T12:02:14.986Z,3716
2016-12-07T12:03:14.712Z,4296
2016-12-07T12:04:14.734Z,4792
2016-12-07T12:05:14.762Z,4728
2016-12-07T12:06:15.398Z,3904
2016-12-07T12:07:14.820Z,3256
2016-12-07T12:08:14.849Z,3276
2016-12-07T12:09:14.869Z,2876
2016-12-07T12:10:14.590Z,2660
2016-12-07T12:11:15.223Z,2504
2016-12-07T12:12:15.252Z,2392
2016-12-07T12:13:15.273Z,2440
2016-12-07T12:14:15.607Z,2436
2016-12-07T12:15:15.342Z,2404
2016-12-07T12:16:15.046Z,2428
2016-12-07T12:17:15.088Z,2384
2016-12-07T12:18:15.096Z,2364
2016-12-07T12:19:15.137Z,2396
2016-12-07T12:20:15.753Z,2488
2016-12-07T12:21:15.198Z,2492
2016-12-07T12:22:15.855Z,2468
2016-12-07T12:23:15.540Z,2312
2016-12-07T12:24:15.268Z,2192
2016-12-07T12:25:15.288Z,2104
2016-12-07T12:26:15.617Z,2088
2016-12-07T12:27:15.041Z,2048
2016-12-07T12:28:15.671Z,2060
2016-12-07T12:29:15.700Z,2020
2016-12-07T12:30:15.404Z,1920
2016-12-07T12:31:15.140Z,1812
2016-12-07T12:32:15.161Z,1700
2016-12-07T12:33:15.523Z,1592
2016-12-07T12:34:15.828Z,1528
2016-12-07T12:35:16.163Z,1444
2016-12-07T12:36:15.881Z,1340
2016-12-07T12:37:15.912Z,1280
2016-12-07T12:38:15.941Z,1288
2016-12-07T12:39:15.949Z,1360
2016-12-07T12:40:15.691Z,1440
2016-12-07T12:41:16.328Z,1492
2016-12-07T12:42:16.388Z,1424
2016-12-07T12:43:16.377Z,1380
2016-12-07T12:44:16.385Z,1368
2016-12-07T12:45:16.122Z,1448
2016-12-07T12:46:15.834Z,1512
2016-12-07T12:47:15.871Z,1564
2016-12-07T12:48:16.208Z,1680
2016-12-07T12:49:16.527Z,1828
2016-12-07T12:50:15.943Z,1940
2016-12-07T12:51:16.274Z,1960
2016-12-07T12:52:16.001Z,1928
2016-12-07T12:53:16.631Z,1856
2016-12-07T12:54:16.069Z,1760
2016-12-07T12:55:16.380Z,1680
2016-12-07T12:56:16.097Z,1664
2016-12-07T12:57:16.130Z,1816
2016-12-07T12:58:15.851Z,2056
2016-12-07T12:59:16.175Z,1780
2016-12-07T13:00:16.216Z,1680
2016-12-07T13:01:16.540Z,1704
2016-12-07T13:02:16.259Z,1748
2016-12-07T13:03:16.590Z,1748
2016-12-07T13:04:16.023Z,1744
2016-12-07T13:05:16.632Z,1720
2016-12-07T13:06:16.668Z,1684
2016-12-07T13:07:16.693Z,1588
2016-12-07T13:08:17.029Z,1480
2016-12-07T13:09:16.468Z,1372
2016-12-07T13:10:16.166Z,1544
2016-12-07T13:11:16.192Z,2224
2016-12-07T13:12:16.520Z,2164
2016-12-07T13:13:17.149Z,1952
2016-12-07T13:14:16.881Z,1724
2016-12-07T13:15:16.306Z,1396
2016-12-07T13:16:16.618Z,1288
2016-12-07T13:17:16.664Z,1284
2016-12-07T13:18:16.984Z,1332
2016-12-07T13:19:16.712Z,1328
2016-12-07T13:20:17.345Z,1288
2016-12-07T13:21:17.066Z,1220
2016-12-07T13:22:16.498Z,1172
2016-12-07T13:23:17.119Z,1124
2016-12-07T13:24:16.836Z,1116
2016-12-07T13:25:17.473Z,1080
2016-12-07T13:26:17.489Z,1036
2016-12-07T13:27:17.542Z,984
2016-12-07T13:28:17.251Z,936
2016-12-07T13:29:16.968Z,904
2016-12-07T13:30:17.300Z,868
2016-12-07T13:31:17.032Z,824
2016-12-07T13:32:17.653Z,792
2016-12-07T13:33:17.677Z,756
2016-12-07T13:34:17.086Z,720
2016-12-07T13:35:17.435Z,692
2016-12-07T13:36:17.467Z,684
2016-12-07T13:37:17.480Z,700
2016-12-07T13:38:17.212Z,740
2016-12-07T13:39:17.533Z,796
2016-12-07T13:40:17.262Z,904
2016-12-07T13:41:17.591Z,1452
2016-12-07T13:42:17.607Z,1280
2016-12-07T13:43:17.331Z,1364
2016-12-07T13:44:17.668Z,1408
2016-12-07T13:45:17.092Z,1364
2016-12-07T13:46:17.717Z,1300
2016-12-07T13:47:17.754Z,1296
2016-12-07T13:48:18.071Z,1292
2016-12-07T13:49:17.491Z,1276
2016-12-07T13:50:17.815Z,1192
2016-12-07T13:51:17.244Z,1192
2016-12-07T13:52:17.573Z,1204
2016-12-07T13:53:17.599Z,1224
2016-12-07T13:54:17.922Z,1236
2016-12-07T13:55:17.954Z,1276
2016-12-07T13:56:18.287Z,1240
2016-12-07T13:57:17.696Z,1180
2016-12-07T13:58:18.024Z,1164
2016-12-07T13:59:18.051Z,1160
2016-12-07T14:00:18.086Z,1076
2016-12-07T14:01:17.803Z,1016
2016-12-07T14:02:17.519Z,976
2016-12-07T14:03:17.551Z,940
2016-12-07T14:04:18.484Z,940
2016-12-07T14:05:17.897Z,892
2016-12-07T14:06:18.239Z,896